sensor_id;sensor_type;location;lat;lon;timestamp;pressure;altitude;pressure_sealevel;temperature;humidity
23241;BME280;11789;53.482;9.862;2022-12-07T00:01:43;101294.56;;;1.72;100.00
23241;BME280;11789;53.482;9.862;2022-12-07T00:04:14;101285.28;;;1.73;100.00
23241;BME280;11789;53.482;9.862;2022-12-07T00:06:42;101278.50;;;1.73;100.00
23241;BME280;11789;53.482;9.862;2022-12-07T00:09:13;101271.78;;;1.75;100.00
23241;BME280;11789;53.482;9.862;2022-12-07T00:11:39;101268.41;;;1.76;100.00
23241;BME280;11789;53.482;9.862;2022-12-07T00:14:09;101273.50;;;1.76;100.00
23241;BME280;11789;53.482;9.862;2022-12-07T00:16:35;101282.84;;;1.76;100.00
23241;BME280;11789;53.482;9.862;2022-12-07T00:19:02;101270.97;;;1.76;100.00
23241;BME280;11789;53.482;9.862;2022-12-07T00:21:31;101267.63;;;1.77;100.00
23241;BME280;11789;53.482;9.862;2022-12-07T00:23:58;101260.84;;;1.78;100.00
23241;BME280;11789;53.482;9.862;2022-12-07T00:26:28;101265.09;;;1.77;100.00
23241;BME280;11789;53.482;9.862;2022-12-07T00:28:56;101261.72;;;1.78;100.00
23241;BME280;11789;53.482;9.862;2022-12-07T00:31:24;101257.50;;;1.79;100.00
23241;BME280;11789;53.482;9.862;2022-12-07T00:33:50;101253.25;;;1.79;100.00
23241;BME280;11789;53.482;9.862;2022-12-07T00:36:22;101253.22;;;1.78;100.00
23241;BME280;11789;53.482;9.862;2022-12-07T00:38:48;101256.50;;;1.75;100.00
23241;BME280;11789;53.482;9.862;2022-12-07T00:41:19;101253.78;;;1.72;100.00
23241;BME280;11789;53.482;9.862;2022-12-07T00:43:46;101253.69;;;1.69;100.00
23241;BME280;11789;53.482;9.862;2022-12-07T00:46:13;101252.06;;;1.71;100.00
23241;BME280;11789;53.482;9.862;2022-12-07T00:48:39;101250.28;;;1.69;100.00
23241;BME280;11789;53.482;9.862;2022-12-07T00:51:06;101246.91;;;1.70;100.00
23241;BME280;11789;53.482;9.862;2022-12-07T00:53:35;101242.69;;;1.70;100.00
23241;BME280;11789;53.482;9.862;2022-12-07T00:56:14;101235.97;;;1.72;100.00
23241;BME280;11789;53.482;9.862;2022-12-07T00:58:40;101231.75;;;1.73;100.00
23241;BME280;11789;53.482;9.862;2022-12-07T01:01:06;101236.16;;;1.77;100.00
23241;BME280;11789;53.482;9.862;2022-12-07T01:03:33;101236.34;;;1.81;100.00
23241;BME280;11789;53.482;9.862;2022-12-07T01:05:58;101240.66;;;1.83;100.00
23241;BME280;11789;53.482;9.862;2022-12-07T01:08:26;101235.66;;;1.86;100.00
23241;BME280;11789;53.482;9.862;2022-12-07T01:11:00;101219.63;;;1.88;100.00
23241;BME280;11789;53.482;9.862;2022-12-07T01:13:26;101216.28;;;1.89;100.00
23241;BME280;11789;53.482;9.862;2022-12-07T01:15:57;101221.31;;;1.88;100.00
23241;BME280;11789;53.482;9.862;2022-12-07T01:18:23;101214.59;;;1.90;100.00
23241;BME280;11789;53.482;9.862;2022-12-07T01:21:06;101217.13;;;1.90;100.00
23241;BME280;11789;53.482;9.862;2022-12-07T01:23:34;101219.81;;;1.93;100.00
23241;BME280;11789;53.482;9.862;2022-12-07T01:26:04;101219.87;;;1.94;100.00
23241;BME280;11789;53.482;9.862;2022-12-07T01:28:30;101221.59;;;1.95;100.00
23241;BME280;11789;53.482;9.862;2022-12-07T01:31:01;101214.88;;;1.97;100.00
23241;BME280;11789;53.482;9.862;2022-12-07T01:33:29;101211.47;;;1.97;100.00
23241;BME280;11789;53.482;9.862;2022-12-07T01:36:04;101214.00;;;1.97;100.00
23241;BME280;11789;53.482;9.862;2022-12-07T01:38:30;101206.31;;;1.95;100.00
23241;BME280;11789;53.482;9.862;2022-12-07T01:40:57;101207.00;;;1.91;100.00
23241;BME280;11789;53.482;9.862;2022-12-07T01:43:24;101210.41;;;1.92;100.00
23241;BME280;11789;53.482;9.862;2022-12-07T01:45:51;101212.03;;;1.90;100.00
23241;BME280;11789;53.482;9.862;2022-12-07T01:48:21;101210.22;;;1.87;100.00
23241;BME280;11789;53.482;9.862;2022-12-07T01:50:49;101203.28;;;1.83;100.00
23241;BME280;11789;53.482;9.862;2022-12-07T01:53:16;101205.00;;;1.84;100.00
23241;BME280;11789;53.482;9.862;2022-12-07T01:55:45;101205.06;;;1.86;100.00
23241;BME280;11789;53.482;9.862;2022-12-07T01:58:12;101204.16;;;1.84;100.00
23241;BME280;11789;53.482;9.862;2022-12-07T02:00:39;101204.00;;;1.80;100.00
23241;BME280;11789;53.482;9.862;2022-12-07T02:03:09;101210.75;;;1.78;100.00
23241;BME280;11789;53.482;9.862;2022-12-07T02:05:37;101212.34;;;1.76;100.00
23241;BME280;11789;53.482;9.862;2022-12-07T02:08:04;101217.44;;;1.76;100.00
23241;BME280;11789;53.482;9.862;2022-12-07T02:10:31;101212.91;;;1.69;100.00
23241;BME280;11789;53.482;9.862;2022-12-07T02:13:08;101217.81;;;1.65;100.00
23241;BME280;11789;53.482;9.862;2022-12-07T02:15:45;101216.00;;;1.62;100.00
23241;BME280;11789;53.482;9.862;2022-12-07T02:21:45;101215.66;;;1.53;100.00
23241;BME280;11789;53.482;9.862;2022-12-07T02:30:17;101210.34;;;1.48;100.00
23241;BME280;11789;53.482;9.862;2022-12-07T02:33:07;101208.53;;;1.46;100.00
23241;BME280;11789;53.482;9.862;2022-12-07T02:36:00;101208.50;;;1.44;100.00
23241;BME280;11789;53.482;9.862;2022-12-07T02:38:49;101201.66;;;1.43;100.00
23241;BME280;11789;53.482;9.862;2022-12-07T02:41:29;101210.84;;;1.40;100.00
23241;BME280;11789;53.482;9.862;2022-12-07T02:44:07;101206.37;;;1.34;100.00
23241;BME280;11789;53.482;9.862;2022-12-07T02:46:36;101210.53;;;1.32;100.00
23241;BME280;11789;53.482;9.862;2022-12-07T02:49:04;101208.75;;;1.31;100.00
23241;BME280;11789;53.482;9.862;2022-12-07T02:51:32;101208.56;;;1.26;100.00
23241;BME280;11789;53.482;9.862;2022-12-07T02:53:59;101216.16;;;1.25;100.00
23241;BME280;11789;53.482;9.862;2022-12-07T03:01:59;101208.31;;;1.20;100.00
23241;BME280;11789;53.482;9.862;2022-12-07T03:07:38;101215.97;;;1.20;100.00
23241;BME280;11789;53.482;9.862;2022-12-07T03:13:00;101213.41;;;1.20;100.00
23241;BME280;11789;53.482;9.862;2022-12-07T03:15:32;101211.69;;;1.19;100.00
23241;BME280;11789;53.482;9.862;2022-12-07T03:18:00;101204.72;;;1.15;100.00
23241;BME280;11789;53.482;9.862;2022-12-07T03:20:29;101204.59;;;1.12;100.00
23241;BME280;11789;53.482;9.862;2022-12-07T03:22:56;101207.13;;;1.12;100.00
23241;BME280;11789;53.482;9.862;2022-12-07T03:25:23;101203.72;;;1.12;100.00
23241;BME280;11789;53.482;9.862;2022-12-07T03:27:57;101201.19;;;1.12;100.00
23241;BME280;11789;53.482;9.862;2022-12-07T03:30:42;101194.31;;;1.11;100.00
23241;BME280;11789;53.482;9.862;2022-12-07T03:33:15;101210.41;;;1.10;100.00
23241;BME280;11789;53.482;9.862;2022-12-07T03:35:47;101202.56;;;1.05;100.00
23241;BME280;11789;53.482;9.862;2022-12-07T03:38:19;101200.84;;;1.04;100.00
23241;BME280;11789;53.482;9.862;2022-12-07T03:40:57;101211.78;;;1.01;100.00
23241;BME280;11789;53.482;9.862;2022-12-07T03:43:25;101220.06;;;0.97;100.00
23241;BME280;11789;53.482;9.862;2022-12-07T03:46:10;101218.25;;;0.95;100.00
23241;BME280;11789;53.482;9.862;2022-12-07T03:51:48;101211.56;;;0.97;100.00
23241;BME280;11789;53.482;9.862;2022-12-07T03:54:21;101213.31;;;0.98;100.00
23241;BME280;11789;53.482;9.862;2022-12-07T03:56:50;101217.44;;;0.96;100.00
23241;BME280;11789;53.482;9.862;2022-12-07T03:59:17;101215.59;;;0.92;100.00
23241;BME280;11789;53.482;9.862;2022-12-07T04:01:44;101215.44;;;0.89;100.00
23241;BME280;11789;53.482;9.862;2022-12-07T04:04:10;101217.84;;;0.86;100.00
23241;BME280;11789;53.482;9.862;2022-12-07T04:06:35;101215.09;;;0.81;100.00
23241;BME280;11789;53.482;9.862;2022-12-07T04:09:01;101218.38;;;0.78;100.00
23241;BME280;11789;53.482;9.862;2022-12-07T04:11:26;101223.22;;;0.72;100.00
23241;BME280;11789;53.482;9.862;2022-12-07T04:13:52;101225.66;;;0.71;100.00
23241;BME280;11789;53.482;9.862;2022-12-07T04:16:36;101224.69;;;0.67;100.00
23241;BME280;11789;53.482;9.862;2022-12-07T04:19:01;101232.31;;;0.67;100.00
23241;BME280;11789;53.482;9.862;2022-12-07T04:21:27;101227.13;;;0.66;100.00
23241;BME280;11789;53.482;9.862;2022-12-07T04:23:52;101226.16;;;0.62;100.00
23241;BME280;11789;53.482;9.862;2022-12-07T04:26:18;101226.22;;;0.64;100.00
23241;BME280;11789;53.482;9.862;2022-12-07T04:28:43;101226.97;;;0.61;100.00
23241;BME280;11789;53.482;9.862;2022-12-07T04:31:09;101227.72;;;0.60;100.00
23241;BME280;11789;53.482;9.862;2022-12-07T04:33:35;101228.47;;;0.58;100.00
23241;BME280;11789;53.482;9.862;2022-12-07T04:36:01;101229.28;;;0.57;100.00
23241;BME280;11789;53.482;9.862;2022-12-07T04:38:27;101227.53;;;0.56;100.00
23241;BME280;11789;53.482;9.862;2022-12-07T04:40:52;101232.81;;;0.60;100.00
23241;BME280;11789;53.482;9.862;2022-12-07T04:43:18;101234.59;;;0.61;100.00
23241;BME280;11789;53.482;9.862;2022-12-07T04:45:47;101228.75;;;0.64;100.00
23241;BME280;11789;53.482;9.862;2022-12-07T04:48:13;101232.91;;;0.62;100.00
23241;BME280;11789;53.482;9.862;2022-12-07T04:50:38;101226.25;;;0.65;100.00
23241;BME280;11789;53.482;9.862;2022-12-07T04:53:04;101226.16;;;0.62;100.00
23241;BME280;11789;53.482;9.862;2022-12-07T04:55:29;101223.81;;;0.67;100.00
23241;BME280;11789;53.482;9.862;2022-12-07T04:57:55;101222.12;;;0.67;100.00
23241;BME280;11789;53.482;9.862;2022-12-07T05:00:20;101215.22;;;0.65;100.00
23241;BME280;11789;53.482;9.862;2022-12-07T05:02:46;101221.31;;;0.68;100.00
23241;BME280;11789;53.482;9.862;2022-12-07T05:05:11;101218.94;;;0.71;100.00
23241;BME280;11789;53.482;9.862;2022-12-07T05:07:36;101226.56;;;0.71;100.00
23241;BME280;11789;53.482;9.862;2022-12-07T05:10:03;101222.34;;;0.72;100.00
23241;BME280;11789;53.482;9.862;2022-12-07T05:12:28;101218.94;;;0.71;100.00
23241;BME280;11789;53.482;9.862;2022-12-07T05:14:54;101213.47;;;0.64;100.00
23241;BME280;11789;53.482;9.862;2022-12-07T05:17:19;101222.72;;;0.62;100.00
23241;BME280;11789;53.482;9.862;2022-12-07T05:19:44;101220.09;;;0.60;100.00
23241;BME280;11789;53.482;9.862;2022-12-07T05:22:10;101221.72;;;0.58;100.00
23241;BME280;11789;53.482;9.862;2022-12-07T05:24:36;101216.56;;;0.57;100.00
23241;BME280;11789;53.482;9.862;2022-12-07T05:27:01;101220.84;;;0.58;100.00
23241;BME280;11789;53.482;9.862;2022-12-07T05:29:26;101209.59;;;0.52;100.00
23241;BME280;11789;53.482;9.862;2022-12-07T05:31:52;101214.69;;;0.52;100.00
23241;BME280;11789;53.482;9.862;2022-12-07T05:34:17;101212.06;;;0.51;100.00
23241;BME280;11789;53.482;9.862;2022-12-07T05:36:47;101214.69;;;0.52;100.00
23241;BME280;11789;53.482;9.862;2022-12-07T05:39:12;101219.09;;;0.57;100.00
23241;BME280;11789;53.482;9.862;2022-12-07T05:41:38;101220.09;;;0.60;100.00
23241;BME280;11789;53.482;9.862;2022-12-07T05:44:22;101219.16;;;0.58;100.00
23241;BME280;11789;53.482;9.862;2022-12-07T05:46:47;101215.53;;;0.53;100.00
23241;BME280;11789;53.482;9.862;2022-12-07T05:49:19;101211.94;;;0.48;100.00
23241;BME280;11789;53.482;9.862;2022-12-07T05:51:44;101211.78;;;0.45;100.00
23241;BME280;11789;53.482;9.862;2022-12-07T05:54:10;101208.84;;;0.36;100.00
23241;BME280;11789;53.482;9.862;2022-12-07T05:56:35;101208.75;;;0.34;100.00
23241;BME280;11789;53.482;9.862;2022-12-07T05:59:01;101209.81;;;0.39;100.00
23241;BME280;11789;53.482;9.862;2022-12-07T06:01:58;101205.69;;;0.41;100.00
23241;BME280;11789;53.482;9.862;2022-12-07T06:04:25;101203.06;;;0.40;100.00
23241;BME280;11789;53.482;9.862;2022-12-07T06:06:51;101209.16;;;0.43;100.00
23241;BME280;11789;53.482;9.862;2022-12-07T06:09:18;101206.69;;;0.45;100.00
23241;BME280;11789;53.482;9.862;2022-12-07T06:11:44;101207.56;;;0.45;100.00
23241;BME280;11789;53.482;9.862;2022-12-07T06:14:28;101206.78;;;0.46;100.00
23241;BME280;11789;53.482;9.862;2022-12-07T06:16:54;101211.88;;;0.46;100.00
23241;BME280;11789;53.482;9.862;2022-12-07T06:19:19;101210.19;;;0.47;100.00
23241;BME280;11789;53.482;9.862;2022-12-07T06:21:45;101208.16;;;0.40;100.00
23241;BME280;11789;53.482;9.862;2022-12-07T06:24:14;101202.06;;;0.36;100.00
23241;BME280;11789;53.482;9.862;2022-12-07T06:26:41;101218.19;;;0.37;100.00
23241;BME280;11789;53.482;9.862;2022-12-07T06:29:06;101217.19;;;0.33;100.00
23241;BME280;11789;53.482;9.862;2022-12-07T06:31:32;101210.47;;;0.35;100.00
23241;BME280;11789;53.482;9.862;2022-12-07T06:34:02;101207.16;;;0.36;100.00
23241;BME280;11789;53.482;9.862;2022-12-07T06:36:28;101203.81;;;0.37;100.00
23241;BME280;11789;53.482;9.862;2022-12-07T06:38:54;101207.22;;;0.38;100.00
23241;BME280;11789;53.482;9.862;2022-12-07T06:41:20;101214.84;;;0.38;100.00
23241;BME280;11789;53.482;9.862;2022-12-07T06:43:46;101208.75;;;0.34;100.00
23241;BME280;11789;53.482;9.862;2022-12-07T06:46:12;101207.22;;;0.38;100.00
23241;BME280;11789;53.482;9.862;2022-12-07T06:48:37;101204.84;;;0.41;100.00
23241;BME280;11789;53.482;9.862;2022-12-07T06:51:03;101209.09;;;0.42;100.00
23241;BME280;11789;53.482;9.862;2022-12-07T06:53:29;101207.50;;;0.44;100.00
23241;BME280;11789;53.482;9.862;2022-12-07T06:55:54;101206.63;;;0.43;100.00
23241;BME280;11789;53.482;9.862;2022-12-07T06:58:19;101202.56;;;0.47;100.00
23241;BME280;11789;53.482;9.862;2022-12-07T07:00:45;101199.81;;;0.42;100.00
23241;BME280;11789;53.482;9.862;2022-12-07T07:03:10;101205.81;;;0.44;100.00
23241;BME280;11789;53.482;9.862;2022-12-07T07:05:37;101204.13;;;0.45;100.00
23241;BME280;11789;53.482;9.862;2022-12-07T07:08:02;101199.87;;;0.44;100.00
23241;BME280;11789;53.482;9.862;2022-12-07T07:10:28;101210.25;;;0.48;100.00
23241;BME280;11789;53.482;9.862;2022-12-07T07:12:54;101205.22;;;0.50;100.00
23241;BME280;11789;53.482;9.862;2022-12-07T07:15:19;101206.69;;;0.45;100.00
23241;BME280;11789;53.482;9.862;2022-12-07T07:17:45;101211.00;;;0.46;100.00
23241;BME280;11789;53.482;9.862;2022-12-07T07:20:11;101209.31;;;0.46;100.00
23241;BME280;11789;53.482;9.862;2022-12-07T07:22:36;101213.66;;;0.49;100.00
23241;BME280;11789;53.482;9.862;2022-12-07T07:25:02;101211.19;;;0.50;100.00
23241;BME280;11789;53.482;9.862;2022-12-07T07:27:27;101211.94;;;0.48;100.00
23241;BME280;11789;53.482;9.862;2022-12-07T07:29:53;101208.72;;;0.52;100.00
23241;BME280;11789;53.482;9.862;2022-12-07T07:32:18;101207.09;;;0.54;100.00
23241;BME280;11789;53.482;9.862;2022-12-07T07:34:44;101213.22;;;0.58;100.00
23241;BME280;11789;53.482;9.862;2022-12-07T07:37:10;101211.38;;;0.55;100.00
23241;BME280;11789;53.482;9.862;2022-12-07T07:39:38;101214.09;;;0.58;100.00
23241;BME280;11789;53.482;9.862;2022-12-07T07:42:04;101215.00;;;0.60;100.00
23241;BME280;11789;53.482;9.862;2022-12-07T07:44:29;101213.47;;;0.64;100.00
23241;BME280;11789;53.482;9.862;2022-12-07T07:46:54;101216.91;;;0.64;100.00
23241;BME280;11789;53.482;9.862;2022-12-07T07:49:20;101225.34;;;0.63;100.00
23241;BME280;11789;53.482;9.862;2022-12-07T07:51:45;101226.22;;;0.64;100.00
23241;BME280;11789;53.482;9.862;2022-12-07T07:54:11;101231.13;;;0.61;100.00
23241;BME280;11789;53.482;9.862;2022-12-07T07:56:36;101233.03;;;0.65;100.00
23241;BME280;11789;53.482;9.862;2022-12-07T07:59:02;101219.31;;;0.61;100.00
23241;BME280;11789;53.482;9.862;2022-12-07T08:01:27;101226.97;;;0.61;100.00
23241;BME280;11789;53.482;9.862;2022-12-07T08:03:53;101230.44;;;0.63;100.00
23241;BME280;11789;53.482;9.862;2022-12-07T08:06:18;101229.87;;;0.70;100.00
23241;BME280;11789;53.482;9.862;2022-12-07T08:08:44;101219.81;;;0.72;100.00
23241;BME280;11789;53.482;9.862;2022-12-07T08:11:09;101224.94;;;0.73;100.00
23241;BME280;11789;53.482;9.862;2022-12-07T08:13:36;101225.09;;;0.76;100.00
23241;BME280;11789;53.482;9.862;2022-12-07T08:16:07;101215.69;;;0.75;100.00
23241;BME280;11789;53.482;9.862;2022-12-07T08:18:37;101219.31;;;0.81;100.00
23241;BME280;11789;53.482;9.862;2022-12-07T08:21:04;101219.41;;;0.82;100.00
23241;BME280;11789;53.482;9.862;2022-12-07T08:23:30;101217.78;;;0.84;100.00
23241;BME280;11789;53.482;9.862;2022-12-07T08:26:00;101213.72;;;0.88;100.00
23241;BME280;11789;53.482;9.862;2022-12-07T08:28:26;101216.25;;;0.88;100.00
23241;BME280;11789;53.482;9.862;2022-12-07T08:30:51;101218.00;;;0.89;100.00
23241;BME280;11789;53.482;9.862;2022-12-07T08:33:17;101222.41;;;0.93;100.00
23241;BME280;11789;53.482;9.862;2022-12-07T08:35:42;101216.72;;;0.98;100.00
23241;BME280;11789;53.482;9.862;2022-12-07T08:38:08;101216.13;;;1.04;100.00
23241;BME280;11789;53.482;9.862;2022-12-07T08:40:33;101219.66;;;1.08;100.00
23241;BME280;11789;53.482;9.862;2022-12-07T08:42:59;101224.97;;;1.12;100.00
23241;BME280;11789;53.482;9.862;2022-12-07T08:45:24;101218.25;;;1.14;100.00
23241;BME280;11789;53.482;9.862;2022-12-07T08:48:04;101217.59;;;1.18;100.00
23241;BME280;11789;53.482;9.862;2022-12-07T08:50:32;101217.63;;;1.20;100.00
23241;BME280;11789;53.482;9.862;2022-12-07T08:52:59;101216.16;;;1.25;100.00
23241;BME280;11789;53.482;9.862;2022-12-07T08:55:26;101211.12;;;1.26;100.00
23241;BME280;11789;53.482;9.862;2022-12-07T08:57:52;101221.44;;;1.29;100.00
23241;BME280;11789;53.482;9.862;2022-12-07T09:00:18;101215.75;;;1.35;100.00
23241;BME280;11789;53.482;9.862;2022-12-07T09:02:44;101224.38;;;1.39;100.00
23241;BME280;11789;53.482;9.862;2022-12-07T09:05:10;101227.03;;;1.42;100.00
23241;BME280;11789;53.482;9.862;2022-12-07T09:07:36;101227.19;;;1.45;100.00
23241;BME280;11789;53.482;9.862;2022-12-07T09:10:03;101232.34;;;1.46;100.00
23241;BME280;11789;53.482;9.862;2022-12-07T09:12:29;101230.78;;;1.50;100.00
23241;BME280;11789;53.482;9.862;2022-12-07T09:14:55;101222.44;;;1.52;100.00
23241;BME280;11789;53.482;9.862;2022-12-07T09:17:21;101230.22;;;1.57;100.00
23241;BME280;11789;53.482;9.862;2022-12-07T09:19:47;101230.37;;;1.60;100.00
23241;BME280;11789;53.482;9.862;2022-12-07T09:22:12;101224.53;;;1.63;100.00
23241;BME280;11789;53.482;9.862;2022-12-07T09:24:37;101233.97;;;1.65;100.00
23241;BME280;11789;53.482;9.862;2022-12-07T09:27:03;101236.66;;;1.68;100.00
23241;BME280;11789;53.482;9.862;2022-12-07T09:29:28;101232.63;;;1.73;100.00
23241;BME280;11789;53.482;9.862;2022-12-07T09:31:54;101233.69;;;1.78;100.00
23241;BME280;11789;53.482;9.862;2022-12-07T09:34:19;101228.69;;;1.81;100.00
23241;BME280;11789;53.482;9.862;2022-12-07T09:36:45;101225.50;;;1.87;100.00
23241;BME280;11789;53.482;9.862;2022-12-07T09:39:11;101227.38;;;1.91;100.00
23241;BME280;11789;53.482;9.862;2022-12-07T09:41:41;101223.16;;;1.92;100.00
23241;BME280;11789;53.482;9.862;2022-12-07T09:44:23;101218.88;;;1.91;100.00
23241;BME280;11789;53.482;9.862;2022-12-07T09:46:50;101225.84;;;1.95;100.00
23241;BME280;11789;53.482;9.862;2022-12-07T09:49:23;101219.87;;;1.94;100.00
23241;BME280;11789;53.482;9.862;2022-12-07T09:52:15;101225.84;;;1.95;100.00
23241;BME280;11789;53.482;9.862;2022-12-07T09:54:46;101229.19;;;1.94;100.00
23241;BME280;11789;53.482;9.862;2022-12-07T09:57:12;101229.13;;;1.92;100.00
23241;BME280;11789;53.482;9.862;2022-12-07T09:59:38;101212.94;;;1.92;100.00
23241;BME280;11789;53.482;9.862;2022-12-07T10:03:07;101219.06;;;1.95;100.00
23241;BME280;11789;53.482;9.862;2022-12-07T10:05:16;101223.41;;;1.98;100.00
23241;BME280;11789;53.482;9.862;2022-12-07T10:07:44;101219.25;;;2.00;100.00
23241;BME280;11789;53.482;9.862;2022-12-07T10:10:18;101215.88;;;2.01;100.00
23241;BME280;11789;53.482;9.862;2022-12-07T10:12:57;101221.84;;;2.01;100.00
23241;BME280;11789;53.482;9.862;2022-12-07T10:15:41;101223.53;;;2.01;100.00
23241;BME280;11789;53.482;9.862;2022-12-07T10:21:02;101225.34;;;2.03;100.00
23241;BME280;11789;53.482;9.862;2022-12-07T10:23:28;101228.75;;;2.04;100.00
23241;BME280;11789;53.482;9.862;2022-12-07T10:25:53;101230.34;;;2.02;100.00
23241;BME280;11789;53.482;9.862;2022-12-07T10:28:27;101230.31;;;2.00;100.00
23241;BME280;11789;53.482;9.862;2022-12-07T10:31:04;101234.50;;;1.98;100.00
23241;BME280;11789;53.482;9.862;2022-12-07T10:33:52;101233.47;;;1.95;100.00
23241;BME280;11789;53.482;9.862;2022-12-07T10:38:51;101227.63;;;1.97;100.00
23241;BME280;11789;53.482;9.862;2022-12-07T10:41:17;101229.38;;;1.98;100.00
23241;BME280;11789;53.482;9.862;2022-12-07T10:43:52;101226.87;;;2.00;100.00
23241;BME280;11789;53.482;9.862;2022-12-07T10:46:53;101216.00;;;2.04;100.00
23241;BME280;11789;53.482;9.862;2022-12-07T11:00:19;101206.22;;;2.15;100.00
23241;BME280;11789;53.482;9.862;2022-12-07T11:05:45;101199.66;;;2.21;100.00
23241;BME280;11789;53.482;9.862;2022-12-07T11:08:38;101200.66;;;2.25;100.00
23241;BME280;11789;53.482;9.862;2022-12-07T11:14:00;101199.16;;;2.30;100.00
23241;BME280;11789;53.482;9.862;2022-12-07T11:21:48;101197.53;;;2.32;100.00
23241;BME280;11789;53.482;9.862;2022-12-07T11:24:40;101192.41;;;2.32;100.00
23241;BME280;11789;53.482;9.862;2022-12-07T11:30:07;101194.97;;;2.32;100.00
23241;BME280;11789;53.482;9.862;2022-12-07T11:33:02;101189.03;;;2.33;100.00
23241;BME280;11789;53.482;9.862;2022-12-07T11:35:52;101191.69;;;2.34;100.00
23241;BME280;11789;53.482;9.862;2022-12-07T11:38:28;101179.03;;;2.38;100.00
23241;BME280;11789;53.482;9.862;2022-12-07T11:41:02;101186.66;;;2.38;100.00
23241;BME280;11789;53.482;9.862;2022-12-07T11:43:52;101181.69;;;2.41;100.00
23241;BME280;11789;53.482;9.862;2022-12-07T11:46:20;101175.72;;;2.40;100.00
23241;BME280;11789;53.482;9.862;2022-12-07T11:49:09;101176.59;;;2.41;100.00
23241;BME280;11789;53.482;9.862;2022-12-07T11:51:38;101180.88;;;2.42;100.00
23241;BME280;11789;53.482;9.862;2022-12-07T11:54:14;101178.31;;;2.42;100.00
23241;BME280;11789;53.482;9.862;2022-12-07T11:56:42;101172.31;;;2.40;100.00
23241;BME280;11789;53.482;9.862;2022-12-07T12:02:13;101162.91;;;2.39;100.00
23241;BME280;11789;53.482;9.862;2022-12-07T12:04:56;101165.47;;;2.39;100.00
23241;BME280;11789;53.482;9.862;2022-12-07T12:07:26;101170.56;;;2.39;100.00
23241;BME280;11789;53.482;9.862;2022-12-07T12:10:02;101167.12;;;2.38;100.00
23241;BME280;11789;53.482;9.862;2022-12-07T12:12:58;101164.66;;;2.40;100.00
23241;BME280;11789;53.482;9.862;2022-12-07T12:21:26;101165.56;;;2.42;100.00
23241;BME280;11789;53.482;9.862;2022-12-07T12:24:08;101163.84;;;2.41;100.00
23241;BME280;11789;53.482;9.862;2022-12-07T12:26:38;101166.38;;;2.41;100.00
23241;BME280;11789;53.482;9.862;2022-12-07T12:29:06;101157.88;;;2.40;100.00
23241;BME280;11789;53.482;9.862;2022-12-07T12:31:40;101156.22;;;2.42;100.00
23241;BME280;11789;53.482;9.862;2022-12-07T12:34:31;101155.47;;;2.45;100.00
23241;BME280;11789;53.482;9.862;2022-12-07T12:36:57;101159.00;;;2.48;100.00
23241;BME280;11789;53.482;9.862;2022-12-07T12:39:23;101157.38;;;2.50;100.00
23241;BME280;11789;53.482;9.862;2022-12-07T12:41:56;101153.97;;;2.50;100.00
23241;BME280;11789;53.482;9.862;2022-12-07T12:46:54;101152.28;;;2.50;100.00
23241;BME280;11789;53.482;9.862;2022-12-07T12:51:56;101152.47;;;2.55;100.00
23241;BME280;11789;53.482;9.862;2022-12-07T12:54:27;101150.81;;;2.57;100.00
23241;BME280;11789;53.482;9.862;2022-12-07T12:57:11;101150.12;;;2.61;100.00
23241;BME280;11789;53.482;9.862;2022-12-07T13:02:29;101153.59;;;2.63;100.00
23241;BME280;11789;53.482;9.862;2022-12-07T13:31:52;101146.88;;;2.43;100.00
23241;BME280;11789;53.482;9.862;2022-12-07T13:34:39;101144.97;;;2.37;100.00
23241;BME280;11789;53.482;9.862;2022-12-07T13:37:21;101143.94;;;2.32;100.00
23241;BME280;11789;53.482;9.862;2022-12-07T13:39:51;101145.53;;;2.28;100.00
23241;BME280;11789;53.482;9.862;2022-12-07T13:42:29;101145.41;;;2.25;100.00
23241;BME280;11789;53.482;9.862;2022-12-07T13:44:56;101144.50;;;2.23;100.00
23241;BME280;11789;53.482;9.862;2022-12-07T13:47:41;101142.63;;;2.19;100.00
23241;BME280;11789;53.482;9.862;2022-12-07T13:50:28;101153.53;;;2.15;100.00
23241;BME280;11789;53.482;9.862;2022-12-07T13:52:56;101153.41;;;2.12;100.00
23241;BME280;11789;53.482;9.862;2022-12-07T13:55:22;101160.13;;;2.10;100.00
23241;BME280;11789;53.482;9.862;2022-12-07T13:57:51;101160.00;;;2.07;100.00
23241;BME280;11789;53.482;9.862;2022-12-07T14:00:19;101159.09;;;2.05;100.00
23241;BME280;11789;53.482;9.862;2022-12-07T14:03:04;101154.84;;;2.05;100.00
23241;BME280;11789;53.482;9.862;2022-12-07T14:06:04;101159.97;;;2.05;100.00
23241;BME280;11789;53.482;9.862;2022-12-07T14:08:29;101158.31;;;2.07;100.00
23241;BME280;11789;53.482;9.862;2022-12-07T14:10:56;101155.84;;;2.09;100.00
23241;BME280;11789;53.482;9.862;2022-12-07T14:15:50;101144.06;;;2.13;100.00
23241;BME280;11789;53.482;9.862;2022-12-07T14:18:28;101151.72;;;2.13;100.00
23241;BME280;11789;53.482;9.862;2022-12-07T14:23:35;101152.59;;;2.13;100.00
23241;BME280;11789;53.482;9.862;2022-12-07T14:26:14;101148.25;;;2.11;100.00
23241;BME280;11789;53.482;9.862;2022-12-07T14:28:43;101156.75;;;2.11;100.00
23241;BME280;11789;53.482;9.862;2022-12-07T14:31:15;101156.66;;;2.08;100.00
23241;BME280;11789;53.482;9.862;2022-12-07T14:33:42;101157.44;;;2.07;100.00
23241;BME280;11789;53.482;9.862;2022-12-07T14:36:12;101160.00;;;2.07;100.00
23241;BME280;11789;53.482;9.862;2022-12-07T14:38:38;101158.22;;;2.04;100.00
23241;BME280;11789;53.482;9.862;2022-12-07T14:41:05;101153.75;;;1.99;100.00
23241;BME280;11789;53.482;9.862;2022-12-07T14:43:50;101155.34;;;1.97;100.00
23241;BME280;11789;53.482;9.862;2022-12-07T14:46:15;101157.00;;;1.95;100.00
23241;BME280;11789;53.482;9.862;2022-12-07T14:48:41;101156.88;;;1.92;100.00